sensor_id;sensor_type;location;lat;lon;timestamp;pressure;altitude;pressure_sealevel;temperature;humidity
35686;BME280;21808;42.142;24.720;2024-03-23T00:53:55;99539.06;;;4.34;88.41
35686;BME280;21808;42.142;24.720;2024-03-23T00:56:21;99544.22;;;4.36;87.20
35686;BME280;21808;42.142;24.720;2024-03-23T00:58:47;99542.50;;;4.33;86.82
35686;BME280;21808;42.142;24.720;2024-03-23T01:01:13;99539.94;;;4.32;86.48
35686;BME280;21808;42.142;24.720;2024-03-23T01:03:38;99536.50;;;4.33;85.66
35686;BME280;21808;42.142;24.720;2024-03-23T01:06:04;99539.94;;;4.33;86.10
35686;BME280;21808;42.142;24.720;2024-03-23T01:08:31;99542.50;;;4.38;85.47
35686;BME280;21808;42.142;24.720;2024-03-23T01:10:59;99544.19;;;4.43;85.15
35686;BME280;21808;42.142;24.720;2024-03-23T01:13:25;99535.59;;;4.47;85.02
35686;BME280;21808;42.142;24.720;2024-03-23T01:15:52;99539.00;;;4.49;84.90
35686;BME280;21808;42.142;24.720;2024-03-23T01:18:19;99533.81;;;4.54;84.04
35686;BME280;21808;42.142;24.720;2024-03-23T01:20:45;99532.06;;;4.59;83.46
35686;BME280;21808;42.142;24.720;2024-03-23T01:23:13;99527.78;;;4.56;81.77
35686;BME280;21808;42.142;24.720;2024-03-23T01:25:40;99535.50;;;4.62;82.11
35686;BME280;21808;42.142;24.720;2024-03-23T01:28:08;99538.09;;;4.58;82.96
35686;BME280;21808;42.142;24.720;2024-03-23T01:30:33;99539.00;;;4.52;84.52
35686;BME280;21808;42.142;24.720;2024-03-23T01:33:00;99533.00;;;4.46;84.39
35686;BME280;21808;42.142;24.720;2024-03-23T01:35:26;99537.34;;;4.38;84.95
35686;BME280;21808;42.142;24.720;2024-03-23T01:37:52;99539.91;;;4.35;85.17
35686;BME280;21808;42.142;24.720;2024-03-23T01:40:18;99538.22;;;4.29;85.45
35686;BME280;21808;42.142;24.720;2024-03-23T01:42:55;99533.97;;;4.19;86.28
35686;BME280;21808;42.142;24.720;2024-03-23T01:45:22;99533.97;;;4.10;86.70
35686;BME280;21808;42.142;24.720;2024-03-23T01:47:49;99536.56;;;4.05;87.28
35686;BME280;21808;42.142;24.720;2024-03-23T01:50:15;99534.00;;;3.99;87.58
35686;BME280;21808;42.142;24.720;2024-03-23T01:52:42;99534.88;;;3.90;89.05
35686;BME280;21808;42.142;24.720;2024-03-23T01:55:08;99537.47;;;3.84;89.00
35686;BME280;21808;42.142;24.720;2024-03-23T01:57:34;99537.47;;;3.89;88.31
35686;BME280;21808;42.142;24.720;2024-03-23T02:00:00;99533.19;;;3.86;88.36
35686;BME280;21808;42.142;24.720;2024-03-23T02:02:27;99536.66;;;3.82;87.51
35686;BME280;21808;42.142;24.720;2024-03-23T02:04:53;99537.50;;;3.80;87.72
35686;BME280;21808;42.142;24.720;2024-03-23T02:07:19;99531.47;;;3.91;88.40
35686;BME280;21808;42.142;24.720;2024-03-23T02:09:45;99527.16;;;3.95;88.27
35686;BME280;21808;42.142;24.720;2024-03-23T02:12:11;99527.13;;;4.01;87.60
35686;BME280;21808;42.142;24.720;2024-03-23T02:14:37;99524.56;;;4.01;87.91
35686;BME280;21808;42.142;24.720;2024-03-23T02:17:04;99531.41;;;4.00;87.17
35686;BME280;21808;42.142;24.720;2024-03-23T02:19:31;99529.72;;;4.07;88.12
35686;BME280;21808;42.142;24.720;2024-03-23T02:21:57;99533.13;;;4.11;86.70
35686;BME280;21808;42.142;24.720;2024-03-23T02:24:24;99530.53;;;4.14;86.74
35686;BME280;21808;42.142;24.720;2024-03-23T02:26:50;99533.97;;;4.19;86.16
35686;BME280;21808;42.142;24.720;2024-03-23T02:29:16;99530.53;;;4.14;85.85
35686;BME280;21808;42.142;24.720;2024-03-23T02:31:42;99531.41;;;4.13;86.34
35686;BME280;21808;42.142;24.720;2024-03-23T02:34:08;99525.38;;;4.14;86.09
35686;BME280;21808;42.142;24.720;2024-03-23T02:36:34;99529.69;;;4.14;85.42
35686;BME280;21808;42.142;24.720;2024-03-23T02:39:00;99530.53;;;4.14;84.69
35686;BME280;21808;42.142;24.720;2024-03-23T02:41:27;99534.84;;;4.14;83.88
35686;BME280;21808;42.142;24.720;2024-03-23T02:43:53;99534.84;;;4.12;83.41
35686;BME280;21808;42.142;24.720;2024-03-23T02:46:19;99537.38;;;4.27;82.98
35686;BME280;21808;42.142;24.720;2024-03-23T02:48:45;99530.50;;;4.23;82.99
35686;BME280;21808;42.142;24.720;2024-03-23T02:51:11;99532.25;;;4.18;83.35
35686;BME280;21808;42.142;24.720;2024-03-23T02:53:36;99533.13;;;4.06;83.43
35686;BME280;21808;42.142;24.720;2024-03-23T02:56:03;99534.03;;;3.93;83.98
35686;BME280;21808;42.142;24.720;2024-03-23T02:58:30;99532.34;;;3.81;84.76
35686;BME280;21808;42.142;24.720;2024-03-23T03:00:56;99526.31;;;3.82;84.64
35686;BME280;21808;42.142;24.720;2024-03-23T03:03:22;99528.06;;;3.79;84.28
35686;BME280;21808;42.142;24.720;2024-03-23T03:05:49;99537.50;;;3.83;85.13
35686;BME280;21808;42.142;24.720;2024-03-23T03:08:20;99528.03;;;3.80;83.74
35686;BME280;21808;42.142;24.720;2024-03-23T03:10:46;99527.19;;;3.80;83.42
35686;BME280;21808;42.142;24.720;2024-03-23T03:13:11;99526.34;;;3.70;83.34
35686;BME280;21808;42.142;24.720;2024-03-23T03:15:39;99529.78;;;3.65;82.87
35686;BME280;21808;42.142;24.720;2024-03-23T03:18:05;99523.78;;;3.58;83.90
35686;BME280;21808;42.142;24.720;2024-03-23T03:20:31;99520.31;;;3.46;83.49
35686;BME280;21808;42.142;24.720;2024-03-23T03:22:57;99518.63;;;3.39;84.80
35686;BME280;21808;42.142;24.720;2024-03-23T03:25:23;99516.91;;;3.29;86.43
35686;BME280;21808;42.142;24.720;2024-03-23T03:27:49;99508.31;;;3.18;87.86
35686;BME280;21808;42.142;24.720;2024-03-23T03:30:15;99520.31;;;3.09;88.85
35686;BME280;21808;42.142;24.720;2024-03-23T03:32:43;99521.19;;;3.05;89.82
35686;BME280;21808;42.142;24.720;2024-03-23T03:35:09;99526.31;;;2.94;90.56
35686;BME280;21808;42.142;24.720;2024-03-23T03:37:35;99534.03;;;2.91;91.37
35686;BME280;21808;42.142;24.720;2024-03-23T03:40:01;99534.03;;;2.85;91.54
35686;BME280;21808;42.142;24.720;2024-03-23T03:42:27;99528.88;;;2.82;90.34
35686;BME280;21808;42.142;24.720;2024-03-23T03:44:53;99534.03;;;2.82;88.76
35686;BME280;21808;42.142;24.720;2024-03-23T03:47:19;99532.31;;;2.81;89.32
35686;BME280;21808;42.142;24.720;2024-03-23T03:49:47;99532.28;;;2.75;89.05
35686;BME280;21808;42.142;24.720;2024-03-23T03:52:13;99526.28;;;2.72;89.12
35686;BME280;21808;42.142;24.720;2024-03-23T03:54:39;99535.72;;;2.66;90.32
35686;BME280;21808;42.142;24.720;2024-03-23T03:57:04;99541.69;;;2.62;90.89
35686;BME280;21808;42.142;24.720;2024-03-23T03:59:30;99540.78;;;2.51;91.46
35686;BME280;21808;42.142;24.720;2024-03-23T04:01:56;99545.03;;;2.41;91.07
35686;BME280;21808;42.142;24.720;2024-03-23T04:04:22;99544.13;;;2.32;91.79
35686;BME280;21808;42.142;24.720;2024-03-23T04:06:49;99539.84;;;2.29;92.03
35686;BME280;21808;42.142;24.720;2024-03-23T04:09:15;99545.84;;;2.31;92.60
35686;BME280;21808;42.142;24.720;2024-03-23T04:11:41;99547.56;;;2.26;91.93
35686;BME280;21808;42.142;24.720;2024-03-23T04:14:07;99548.34;;;2.10;92.97
35686;BME280;21808;42.142;24.720;2024-03-23T04:16:34;99553.38;;;1.96;93.29
35686;BME280;21808;42.142;24.720;2024-03-23T04:19:01;99552.44;;;1.83;93.95
35686;BME280;21808;42.142;24.720;2024-03-23T04:21:27;99544.69;;;1.76;94.01
35686;BME280;21808;42.142;24.720;2024-03-23T04:23:54;99554.94;;;1.73;94.10
35686;BME280;21808;42.142;24.720;2024-03-23T04:26:20;99554.09;;;1.72;94.08
35686;BME280;21808;42.142;24.720;2024-03-23T04:28:46;99553.19;;;1.67;94.88
35686;BME280;21808;42.142;24.720;2024-03-23T04:31:12;99568.59;;;1.66;94.62
35686;BME280;21808;42.142;24.720;2024-03-23T04:33:38;99560.03;;;1.65;95.49
35686;BME280;21808;42.142;24.720;2024-03-23T04:36:05;99560.91;;;1.70;94.81
35686;BME280;21808;42.142;24.720;2024-03-23T04:38:30;99563.56;;;1.82;95.84
35686;BME280;21808;42.142;24.720;2024-03-23T04:40:58;99561.09;;;1.91;95.09
35686;BME280;21808;42.142;24.720;2024-03-23T04:43:25;99560.25;;;1.95;94.92
35686;BME280;21808;42.142;24.720;2024-03-23T04:45:51;99569.72;;;2.05;94.57
35686;BME280;21808;42.142;24.720;2024-03-23T04:48:20;99568.94;;;2.16;94.65
35686;BME280;21808;42.142;24.720;2024-03-23T04:50:46;99569.84;;;2.30;93.37
35686;BME280;21808;42.142;24.720;2024-03-23T04:53:12;99573.41;;;2.61;92.67
35686;BME280;21808;42.142;24.720;2024-03-23T04:55:38;99565.69;;;2.59;91.58
35686;BME280;21808;42.142;24.720;2024-03-23T04:58:05;99564.88;;;2.73;90.49
35686;BME280;21808;42.142;24.720;2024-03-23T05:00:31;99568.38;;;2.87;90.03
35686;BME280;21808;42.142;24.720;2024-03-23T05:02:57;99562.38;;;2.96;90.06
35686;BME280;21808;42.142;24.720;2024-03-23T05:05:23;99564.97;;;3.03;89.31
35686;BME280;21808;42.142;24.720;2024-03-23T05:07:49;99566.69;;;3.19;88.53
35686;BME280;21808;42.142;24.720;2024-03-23T05:10:15;99563.28;;;3.48;87.91
35686;BME280;21808;42.142;24.720;2024-03-23T05:12:41;99558.16;;;3.50;86.55
35686;BME280;21808;42.142;24.720;2024-03-23T05:15:08;99561.56;;;3.79;85.59
35686;BME280;21808;42.142;24.720;2024-03-23T05:17:34;99569.28;;;4.03;84.46
35686;BME280;21808;42.142;24.720;2024-03-23T05:20:01;99565.78;;;4.15;82.56
35686;BME280;21808;42.142;24.720;2024-03-23T05:22:28;99567.50;;;4.22;80.67
35686;BME280;21808;42.142;24.720;2024-03-23T05:24:54;99569.22;;;4.25;80.60
35686;BME280;21808;42.142;24.720;2024-03-23T05:27:20;99565.75;;;4.27;80.42
35686;BME280;21808;42.142;24.720;2024-03-23T05:29:46;99564.94;;;4.16;79.36
35686;BME280;21808;42.142;24.720;2024-03-23T05:32:14;99564.00;;;4.43;79.81
35686;BME280;21808;42.142;24.720;2024-03-23T05:34:40;99573.34;;;4.71;78.49
35686;BME280;21808;42.142;24.720;2024-03-23T05:37:06;99570.00;;;4.46;78.40
35686;BME280;21808;42.142;24.720;2024-03-23T05:39:32;99563.94;;;4.61;77.79
35686;BME280;21808;42.142;24.720;2024-03-23T05:41:58;99564.59;;;4.98;77.34
35686;BME280;21808;42.142;24.720;2024-03-23T05:44:24;99569.69;;;5.13;74.23
35686;BME280;21808;42.142;24.720;2024-03-23T05:46:50;99569.66;;;5.19;73.82
35686;BME280;21808;42.142;24.720;2024-03-23T05:49:17;99560.88;;;5.40;72.67
35686;BME280;21808;42.142;24.720;2024-03-23T05:51:43;99558.19;;;5.50;72.38
35686;BME280;21808;42.142;24.720;2024-03-23T05:54:09;99566.97;;;5.31;72.34
35686;BME280;21808;42.142;24.720;2024-03-23T05:56:35;99562.66;;;5.32;73.02
35686;BME280;21808;42.142;24.720;2024-03-23T05:59:01;99564.47;;;5.21;72.00
35686;BME280;21808;42.142;24.720;2024-03-23T06:01:29;99566.09;;;5.31;72.03
35686;BME280;21808;42.142;24.720;2024-03-23T06:03:58;99555.66;;;5.47;71.50
35686;BME280;21808;42.142;24.720;2024-03-23T06:06:25;99562.38;;;5.67;70.79
35686;BME280;21808;42.142;24.720;2024-03-23T06:08:51;99561.44;;;5.74;69.75
35686;BME280;21808;42.142;24.720;2024-03-23T06:11:17;99559.72;;;5.72;69.17
35686;BME280;21808;42.142;24.720;2024-03-23T06:13:43;99564.84;;;5.85;69.03
35686;BME280;21808;42.142;24.720;2024-03-23T06:16:10;99557.78;;;6.01;69.42
35686;BME280;21808;42.142;24.720;2024-03-23T06:18:36;99561.97;;;6.12;68.53
35686;BME280;21808;42.142;24.720;2024-03-23T06:21:02;99556.81;;;6.12;68.13
35686;BME280;21808;42.142;24.720;2024-03-23T06:23:29;99561.88;;;6.24;68.02
35686;BME280;21808;42.142;24.720;2024-03-23T06:25:55;99560.06;;;6.29;67.82
35686;BME280;21808;42.142;24.720;2024-03-23T06:28:21;99561.66;;;6.42;68.24
35686;BME280;21808;42.142;24.720;2024-03-23T06:30:47;99554.03;;;6.97;66.43
35686;BME280;21808;42.142;24.720;2024-03-23T06:33:13;99560.63;;;7.19;64.61
35686;BME280;21808;42.142;24.720;2024-03-23T06:35:40;99553.44;;;7.39;64.09
35686;BME280;21808;42.142;24.720;2024-03-23T06:38:06;99552.19;;;7.61;62.47
35686;BME280;21808;42.142;24.720;2024-03-23T06:40:36;99552.94;;;7.67;62.45
35686;BME280;21808;42.142;24.720;2024-03-23T06:43:01;99555.69;;;7.60;62.71
35686;BME280;21808;42.142;24.720;2024-03-23T06:45:27;99554.06;;;8.03;61.80
35686;BME280;21808;42.142;24.720;2024-03-23T06:47:53;99552.75;;;8.27;60.32
35686;BME280;21808;42.142;24.720;2024-03-23T06:50:23;99561.63;;;8.18;59.84
35686;BME280;21808;42.142;24.720;2024-03-23T06:52:49;99552.16;;;8.14;60.09
35686;BME280;21808;42.142;24.720;2024-03-23T06:55:15;99556.72;;;8.46;59.41
35686;BME280;21808;42.142;24.720;2024-03-23T06:57:42;99556.78;;;8.43;58.56
35686;BME280;21808;42.142;24.720;2024-03-23T07:00:09;99560.13;;;8.48;58.51
35686;BME280;21808;42.142;24.720;2024-03-23T07:02:35;99554.69;;;8.60;58.15
35686;BME280;21808;42.142;24.720;2024-03-23T07:05:01;99546.00;;;8.63;57.68
35686;BME280;21808;42.142;24.720;2024-03-23T07:07:28;99549.50;;;8.62;58.56
35686;BME280;21808;42.142;24.720;2024-03-23T07:09:57;99549.38;;;9.07;57.40
35686;BME280;21808;42.142;24.720;2024-03-23T07:12:23;99541.09;;;9.28;56.96
35686;BME280;21808;42.142;24.720;2024-03-23T07:14:51;99538.19;;;9.74;56.13
35686;BME280;21808;42.142;24.720;2024-03-23T07:17:17;99536.28;;;9.82;54.27
35686;BME280;21808;42.142;24.720;2024-03-23T07:19:44;99538.13;;;9.77;53.82
35686;BME280;21808;42.142;24.720;2024-03-23T07:22:09;99540.31;;;9.60;54.63
35686;BME280;21808;42.142;24.720;2024-03-23T07:24:36;99538.03;;;9.47;54.65
35686;BME280;21808;42.142;24.720;2024-03-23T07:27:03;99539.72;;;9.48;54.69
35686;BME280;21808;42.142;24.720;2024-03-23T07:29:29;99538.88;;;9.48;54.47
35686;BME280;21808;42.142;24.720;2024-03-23T07:31:56;99529.16;;;9.54;54.52
35686;BME280;21808;42.142;24.720;2024-03-23T07:34:23;99531.91;;;9.48;54.29
35686;BME280;21808;42.142;24.720;2024-03-23T07:36:49;99529.94;;;9.57;53.33
35686;BME280;21808;42.142;24.720;2024-03-23T07:39:16;99533.25;;;10.00;52.53
35686;BME280;21808;42.142;24.720;2024-03-23T07:41:44;99529.91;;;10.27;52.64
35686;BME280;21808;42.142;24.720;2024-03-23T07:44:11;99528.03;;;10.32;51.75
35686;BME280;21808;42.142;24.720;2024-03-23T07:46:36;99522.78;;;10.64;50.25
35686;BME280;21808;42.142;24.720;2024-03-23T07:49:05;99523.69;;;10.32;50.46
35686;BME280;21808;42.142;24.720;2024-03-23T07:51:31;99514.00;;;10.66;51.25
35686;BME280;21808;42.142;24.720;2024-03-23T07:53:58;99516.06;;;10.25;49.62
35686;BME280;21808;42.142;24.720;2024-03-23T07:56:24;99509.81;;;10.90;49.87
35686;BME280;21808;42.142;24.720;2024-03-23T07:58:50;99503.81;;;11.42;48.40
35686;BME280;21808;42.142;24.720;2024-03-23T08:01:16;99505.75;;;11.08;48.72
35686;BME280;21808;42.142;24.720;2024-03-23T08:03:43;99499.59;;;11.11;47.68
35686;BME280;21808;42.142;24.720;2024-03-23T08:06:13;99502.09;;;11.68;48.11
35686;BME280;21808;42.142;24.720;2024-03-23T08:08:40;99500.91;;;11.51;46.74
35686;BME280;21808;42.142;24.720;2024-03-23T08:11:07;99502.25;;;11.64;46.74
35686;BME280;21808;42.142;24.720;2024-03-23T08:13:34;99498.59;;;11.94;47.09
35686;BME280;21808;42.142;24.720;2024-03-23T08:16:01;99489.66;;;11.76;46.69
35686;BME280;21808;42.142;24.720;2024-03-23T08:18:27;99490.06;;;11.89;45.90
35686;BME280;21808;42.142;24.720;2024-03-23T08:20:57;99487.59;;;11.84;46.94
35686;BME280;21808;42.142;24.720;2024-03-23T08:23:25;99479.47;;;11.93;46.29
35686;BME280;21808;42.142;24.720;2024-03-23T08:25:51;99474.72;;;12.29;46.04
35686;BME280;21808;42.142;24.720;2024-03-23T08:28:17;99478.69;;;12.61;44.20
35686;BME280;21808;42.142;24.720;2024-03-23T08:30:43;99476.53;;;12.02;44.85
35686;BME280;21808;42.142;24.720;2024-03-23T08:33:09;99476.69;;;11.98;44.49
35686;BME280;21808;42.142;24.720;2024-03-23T08:35:35;99458.56;;;12.63;43.71
35686;BME280;21808;42.142;24.720;2024-03-23T08:38:01;99459.25;;;12.68;43.27
35686;BME280;21808;42.142;24.720;2024-03-23T08:40:31;99458.22;;;12.72;43.24
35686;BME280;21808;42.142;24.720;2024-03-23T08:42:57;99457.00;;;13.03;42.83
35686;BME280;21808;42.142;24.720;2024-03-23T08:45:24;99452.59;;;13.68;40.20
35686;BME280;21808;42.142;24.720;2024-03-23T08:47:50;99456.06;;;14.10;40.02
35686;BME280;21808;42.142;24.720;2024-03-23T08:50:16;99448.03;;;13.93;38.65
35686;BME280;21808;42.142;24.720;2024-03-23T08:52:42;99437.81;;;13.87;38.30
35686;BME280;21808;42.142;24.720;2024-03-23T08:55:08;99439.03;;;13.78;39.89
35686;BME280;21808;42.142;24.720;2024-03-23T08:57:36;99441.47;;;14.23;39.35
35686;BME280;21808;42.142;24.720;2024-03-23T09:00:03;99435.41;;;14.41;38.14
35686;BME280;21808;42.142;24.720;2024-03-23T09:02:29;99431.78;;;14.43;38.16
35686;BME280;21808;42.142;24.720;2024-03-23T09:04:57;99431.59;;;14.66;37.91
35686;BME280;21808;42.142;24.720;2024-03-23T09:07:30;99417.69;;;14.82;37.30
35686;BME280;21808;42.142;24.720;2024-03-23T09:09:55;99416.94;;;15.15;37.50
35686;BME280;21808;42.142;24.720;2024-03-23T09:12:22;99424.31;;;15.44;36.79
35686;BME280;21808;42.142;24.720;2024-03-23T09:14:50;99414.41;;;15.83;35.54
35686;BME280;21808;42.142;24.720;2024-03-23T09:17:16;99413.28;;;16.04;35.49
35686;BME280;21808;42.142;24.720;2024-03-23T09:19:43;99405.69;;;16.32;34.69
35686;BME280;21808;42.142;24.720;2024-03-23T09:22:09;99402.44;;;16.59;34.40
35686;BME280;21808;42.142;24.720;2024-03-23T09:24:35;99397.78;;;16.79;34.17
35686;BME280;21808;42.142;24.720;2024-03-23T09:27:02;99393.63;;;16.75;34.45
35686;BME280;21808;42.142;24.720;2024-03-23T09:29:29;99398.78;;;16.61;34.01
35686;BME280;21808;42.142;24.720;2024-03-23T09:31:56;99391.66;;;16.63;34.17
35686;BME280;21808;42.142;24.720;2024-03-23T09:34:22;99376.53;;;16.82;33.17
35686;BME280;21808;42.142;24.720;2024-03-23T09:36:51;99384.34;;;16.68;33.54
35686;BME280;21808;42.142;24.720;2024-03-23T09:39:22;99373.66;;;16.56;33.47
35686;BME280;21808;42.142;24.720;2024-03-23T09:41:48;99378.63;;;16.60;33.69
35686;BME280;21808;42.142;24.720;2024-03-23T09:44:14;99369.56;;;16.51;33.20
35686;BME280;21808;42.142;24.720;2024-03-23T09:46:40;99371.59;;;16.76;33.52
35686;BME280;21808;42.142;24.720;2024-03-23T09:49:08;99366.00;;;16.52;33.82
35686;BME280;21808;42.142;24.720;2024-03-23T09:51:36;99363.94;;;16.56;33.86
35686;BME280;21808;42.142;24.720;2024-03-23T09:54:02;99353.81;;;16.34;34.98
35686;BME280;21808;42.142;24.720;2024-03-23T09:56:28;99360.91;;;16.79;33.32
35686;BME280;21808;42.142;24.720;2024-03-23T09:59:00;99355.44;;;16.82;32.43
35686;BME280;21808;42.142;24.720;2024-03-23T10:01:26;99353.84;;;16.95;32.50
35686;BME280;21808;42.142;24.720;2024-03-23T10:03:52;99346.69;;;16.97;32.95
35686;BME280;21808;42.142;24.720;2024-03-23T10:06:22;99339.34;;;17.18;33.14
35686;BME280;21808;42.142;24.720;2024-03-23T10:08:53;99331.00;;;16.96;33.12
35686;BME280;21808;42.142;24.720;2024-03-23T10:11:21;99338.59;;;17.00;33.82
35686;BME280;21808;42.142;24.720;2024-03-23T10:13:47;99322.09;;;17.27;33.53
35686;BME280;21808;42.142;24.720;2024-03-23T10:16:21;99315.50;;;17.50;32.83
35686;BME280;21808;42.142;24.720;2024-03-23T10:18:48;99318.97;;;17.50;32.57
35686;BME280;21808;42.142;24.720;2024-03-23T10:21:15;99317.44;;;17.46;33.37
35686;BME280;21808;42.142;24.720;2024-03-23T10:23:43;99305.69;;;17.52;33.47
35686;BME280;21808;42.142;24.720;2024-03-23T10:26:18;99303.44;;;17.74;32.79
35686;BME280;21808;42.142;24.720;2024-03-23T10:28:51;99306.50;;;17.95;31.54
35686;BME280;21808;42.142;24.720;2024-03-23T10:31:17;99299.97;;;17.30;32.05
35686;BME280;21808;42.142;24.720;2024-03-23T10:33:47;99291.03;;;17.32;32.17
35686;BME280;21808;42.142;24.720;2024-03-23T10:36:13;99290.38;;;16.84;33.09
35686;BME280;21808;42.142;24.720;2024-03-23T10:38:40;99272.06;;;17.41;33.29
35686;BME280;21808;42.142;24.720;2024-03-23T10:41:09;99282.72;;;17.68;32.63
35686;BME280;21808;42.142;24.720;2024-03-23T10:43:36;99279.53;;;17.77;32.31
35686;BME280;21808;42.142;24.720;2024-03-23T10:46:03;99277.00;;;18.03;30.58
35686;BME280;21808;42.142;24.720;2024-03-23T10:48:29;99282.34;;;18.43;31.50
35686;BME280;21808;42.142;24.720;2024-03-23T10:50:55;99273.91;;;18.51;31.15
35686;BME280;21808;42.142;24.720;2024-03-23T10:53:22;99257.09;;;18.11;31.23
35686;BME280;21808;42.142;24.720;2024-03-23T10:55:51;99264.97;;;18.53;31.52
35686;BME280;21808;42.142;24.720;2024-03-23T10:58:21;99251.44;;;18.58;30.47
35686;BME280;21808;42.142;24.720;2024-03-23T11:00:52;99243.34;;;18.61;30.36
35686;BME280;21808;42.142;24.720;2024-03-23T11:03:35;99247.75;;;18.60;30.21
35686;BME280;21808;42.142;24.720;2024-03-23T11:06:03;99239.66;;;18.63;30.26
35686;BME280;21808;42.142;24.720;2024-03-23T11:08:34;99236.41;;;18.72;29.96
35686;BME280;21808;42.142;24.720;2024-03-23T11:11:14;99218.09;;;18.95;29.25
35686;BME280;21808;42.142;24.720;2024-03-23T11:13:52;99220.56;;;19.11;29.96
35686;BME280;21808;42.142;24.720;2024-03-23T11:16:22;99221.03;;;18.91;30.21
35686;BME280;21808;42.142;24.720;2024-03-23T11:22:08;99205.84;;;19.07;31.02
35686;BME280;21808;42.142;24.720;2024-03-23T11:24:34;99194.78;;;18.75;29.64
35686;BME280;21808;42.142;24.720;2024-03-23T11:27:15;99189.06;;;18.69;29.74
35686;BME280;21808;42.142;24.720;2024-03-23T11:29:43;99182.44;;;18.88;30.58
35686;BME280;21808;42.142;24.720;2024-03-23T11:32:09;99181.16;;;18.81;30.20
35686;BME280;21808;42.142;24.720;2024-03-23T11:34:36;99175.19;;;19.17;30.28
35686;BME280;21808;42.142;24.720;2024-03-23T11:37:04;99169.47;;;18.98;30.20
35686;BME280;21808;42.142;24.720;2024-03-23T11:39:33;99161.19;;;18.90;30.03
35686;BME280;21808;42.142;24.720;2024-03-23T11:41:59;99152.94;;;18.82;30.03
35686;BME280;21808;42.142;24.720;2024-03-23T11:44:26;99146.09;;;18.92;29.88
35686;BME280;21808;42.142;24.720;2024-03-23T11:47:08;99139.81;;;18.68;30.01
35686;BME280;21808;42.142;24.720;2024-03-23T11:49:34;99133.47;;;18.70;29.86
35686;BME280;21808;42.142;24.720;2024-03-23T11:52:07;99133.53;;;19.08;29.38
35686;BME280;21808;42.142;24.720;2024-03-23T11:54:33;99129.53;;;19.15;29.12
35686;BME280;21808;42.142;24.720;2024-03-23T11:57:00;99122.34;;;19.29;28.55
35686;BME280;21808;42.142;24.720;2024-03-23T11:59:34;99126.13;;;19.25;28.86
35686;BME280;21808;42.142;24.720;2024-03-23T12:02:08;99113.44;;;19.42;28.94
35686;BME280;21808;42.142;24.720;2024-03-23T12:04:35;99111.09;;;19.38;29.30
35686;BME280;21808;42.142;24.720;2024-03-23T12:07:12;99113.22;;;19.58;27.90
35686;BME280;21808;42.142;24.720;2024-03-23T12:09:39;99103.69;;;19.55;28.09
35686;BME280;21808;42.142;24.720;2024-03-23T12:12:10;99098.41;;;19.55;27.16
35686;BME280;21808;42.142;24.720;2024-03-23T12:14:36;99101.84;;;19.68;28.36
35686;BME280;21808;42.142;24.720;2024-03-23T12:17:11;99096.41;;;19.34;28.21
35686;BME280;21808;42.142;24.720;2024-03-23T12:19:37;99098.75;;;19.38;27.68
35686;BME280;21808;42.142;24.720;2024-03-23T12:22:09;99081.66;;;19.55;27.63
35686;BME280;21808;42.142;24.720;2024-03-23T12:24:35;99081.03;;;19.64;27.75
35686;BME280;21808;42.142;24.720;2024-03-23T12:27:02;99076.97;;;19.71;27.48
35686;BME280;21808;42.142;24.720;2024-03-23T12:29:29;99072.72;;;19.81;27.23
35686;BME280;21808;42.142;24.720;2024-03-23T12:31:55;99070.34;;;20.01;27.88
35686;BME280;21808;42.142;24.720;2024-03-23T12:34:23;99062.66;;;20.09;28.01
35686;BME280;21808;42.142;24.720;2024-03-23T12:36:49;99064.81;;;20.04;27.05
35686;BME280;21808;42.142;24.720;2024-03-23T12:39:14;99052.81;;;19.75;27.52
35686;BME280;21808;42.142;24.720;2024-03-23T12:41:40;99062.16;;;19.33;27.38
35686;BME280;21808;42.142;24.720;2024-03-23T12:44:06;99047.38;;;19.53;28.21
35686;BME280;21808;42.142;24.720;2024-03-23T12:46:34;99046.88;;;19.84;27.54
35686;BME280;21808;42.142;24.720;2024-03-23T12:49:00;99048.28;;;20.01;26.98
35686;BME280;21808;42.142;24.720;2024-03-23T12:51:27;99047.47;;;19.16;27.43
35686;BME280;21808;42.142;24.720;2024-03-23T12:53:53;99037.25;;;19.47;27.44
35686;BME280;21808;42.142;24.720;2024-03-23T12:56:19;99036.94;;;19.75;26.97
35686;BME280;21808;42.142;24.720;2024-03-23T12:58:45;99032.31;;;19.66;25.87
35686;BME280;21808;42.142;24.720;2024-03-23T13:01:11;99025.69;;;19.84;27.56
35686;BME280;21808;42.142;24.720;2024-03-23T13:03:37;99024.31;;;20.14;26.66
35686;BME280;21808;42.142;24.720;2024-03-23T13:06:03;99022.44;;;20.04;26.39
35686;BME280;21808;42.142;24.720;2024-03-23T13:08:34;99018.59;;;20.08;26.69
35686;BME280;21808;42.142;24.720;2024-03-23T13:11:00;99012.38;;;20.20;25.80
35686;BME280;21808;42.142;24.720;2024-03-23T13:13:26;99002.72;;;20.08;24.98
35686;BME280;21808;42.142;24.720;2024-03-23T13:15:52;98990.94;;;19.89;26.21
35686;BME280;21808;42.142;24.720;2024-03-23T13:18:18;98998.88;;;19.89;26.49
35686;BME280;21808;42.142;24.720;2024-03-23T13:20:44;98999.44;;;19.81;25.08
35686;BME280;21808;42.142;24.720;2024-03-23T13:23:10;98992.44;;;19.93;25.72
35686;BME280;21808;42.142;24.720;2024-03-23T13:25:37;98986.25;;;19.92;25.19
35686;BME280;21808;42.142;24.720;2024-03-23T13:28:05;98979.38;;;19.90;25.31
35686;BME280;21808;42.142;24.720;2024-03-23T13:30:31;98984.78;;;20.11;24.84
35686;BME280;21808;42.142;24.720;2024-03-23T13:32:57;98979.06;;;20.28;24.43
35686;BME280;21808;42.142;24.720;2024-03-23T13:35:23;98976.97;;;20.10;23.79
35686;BME280;21808;42.142;24.720;2024-03-23T13:37:49;98974.78;;;20.04;24.38
35686;BME280;21808;42.142;24.720;2024-03-23T13:40:15;98971.19;;;20.05;24.55
35686;BME280;21808;42.142;24.720;2024-03-23T13:42:42;98972.41;;;20.12;24.70
35686;BME280;21808;42.142;24.720;2024-03-23T13:45:10;98963.06;;;20.19;24.44
35686;BME280;21808;42.142;24.720;2024-03-23T13:47:43;98954.38;;;20.17;25.40
35686;BME280;21808;42.142;24.720;2024-03-23T13:50:11;98958.47;;;20.21;25.41